Time;durP1;ratioP1;P1;durP2;ratioP2;P2;SDS_P1;SDS_P2;PMS_P1;PMS_P2;Temp;Humidity;BMP_temperature;BMP_pressure;BME280_temperature;BME280_humidity;BME280_pressure;Samples;Min_cycle;Max_cycle;Signal;HPM_P1;HPM_P2
2022/06/17 00:01:03;;;;;;;3.53;2.25;;;;;;;20.63;64.15;100166.50;5044493;28;20032;-65
2022/06/17 00:03:32;;;;;;;5.85;2.30;;;;;;;20.70;64.34;100158.38;5046224;28;20041;-66
2022/06/17 00:06:00;;;;;;;6.95;2.55;;;;;;;20.75;63.72;100157.72;5044898;28;20357;-66
2022/06/17 00:08:35;;;;;;;8.73;2.50;;;;;;;20.69;63.46;100149.47;5043705;28;20108;-66
2022/06/17 00:11:01;;;;;;;3.45;2.60;;;;;;;20.72;62.89;100149.03;5046770;28;20323;-66
2022/06/17 00:13:27;;;;;;;8.15;2.85;;;;;;;20.78;62.44;100144.66;5043447;28;20041;-66
2022/06/17 00:15:53;;;;;;;10.55;3.15;;;;;;;20.78;62.60;100151.91;5042224;28;20079;-66
2022/06/17 00:18:20;;;;;;;4.43;2.45;;;;;;;20.77;62.07;100139.50;5043828;28;20037;-66
2022/06/17 00:20:48;;;;;;;6.88;3.13;;;;;;;20.82;62.08;100145.91;5042619;28;20032;-66
2022/06/17 00:23:17;;;;;;;4.57;2.67;;;;;;;20.88;62.63;100152.28;5043101;28;20322;-66
2022/06/17 00:25:45;;;;;;;10.05;2.78;;;;;;;20.77;62.28;100147.56;5043378;28;20222;-66
2022/06/17 00:28:17;;;;;;;7.40;3.13;;;;;;;20.68;63.44;100141.63;5043320;28;20071;-66
2022/06/17 00:30:43;;;;;;;5.32;2.75;;;;;;;20.68;63.70;100141.63;5041983;28;20045;-66
2022/06/17 00:33:09;;;;;;;7.65;3.22;;;;;;;20.49;63.57;100146.09;5041841;28;20037;-66
2022/06/17 00:35:38;;;;;;;7.20;3.05;;;;;;;20.41;64.08;100143.66;5043617;28;20075;-66
2022/06/17 00:38:04;;;;;;;9.77;3.10;;;;;;;20.41;64.85;100143.66;5041986;28;20033;-66
2022/06/17 00:40:33;;;;;;;5.97;2.58;;;;;;;20.40;64.69;100137.47;5042348;28;20041;-66
2022/06/17 00:43:02;;;;;;;7.50;2.80;;;;;;;20.50;64.60;100138.84;5043813;28;20045;-66
2022/06/17 00:45:41;;;;;;;5.90;2.53;;;;;;;20.58;64.04;100135.91;5043623;28;20211;-66
2022/06/17 00:48:29;;;;;;;5.60;2.80;;;;;;;20.59;64.92;100138.38;5042664;28;20026;-66
2022/06/17 00:51:02;;;;;;;9.43;3.20;;;;;;;20.54;64.92;100134.69;5036893;28;20223;-66
2022/06/17 00:53:33;;;;;;;8.30;2.80;;;;;;;20.54;65.38;100135.50;5045882;28;20250;-66
2022/06/17 00:56:34;;;;;;;4.65;2.60;;;;;;;20.55;65.05;100137.16;5043392;28;20104;-66
2022/06/17 00:59:09;;;;;;;7.57;3.13;;;;;;;20.41;64.87;100138.28;5041671;28;20033;-66
2022/06/17 01:01:50;;;;;;;8.98;3.20;;;;;;;20.34;64.72;100132.09;5042635;28;20112;-65
2022/06/17 01:04:35;;;;;;;9.27;2.80;;;;;;;20.14;65.71;100132.22;5041201;28;20033;-66
2022/06/17 01:07:13;;;;;;;6.32;2.83;;;;;;;20.05;66.15;100123.56;5042592;28;20029;-66
2022/06/17 01:09:57;;;;;;;6.03;3.28;;;;;;;20.07;65.94;100120.66;5042455;28;20033;-66
2022/06/17 01:12:27;;;;;;;8.40;3.03;;;;;;;20.09;65.88;100124.78;5042203;28;20021;-65
2022/06/17 01:14:54;;;;;;;6.93;3.28;;;;;;;19.97;66.02;100112.25;5044424;28;20089;-65
2022/06/17 01:17:21;;;;;;;6.03;2.75;;;;;;;19.99;66.45;100112.84;5042693;28;20037;-66
2022/06/17 01:19:52;;;;;;;8.88;3.42;;;;;;;19.97;66.78;100126.50;5042249;28;20091;-66
2022/06/17 01:22:36;;;;;;;4.35;2.67;;;;;;;20.05;66.59;100126.25;5040809;28;20024;-66
2022/06/17 01:25:10;;;;;;;4.93;2.77;;;;;;;20.00;66.97;100119.88;5043670;28;20381;-66
2022/06/17 01:27:42;;;;;;;4.75;3.33;;;;;;;19.95;67.27;100120.50;5041644;28;20041;-66
2022/06/17 01:30:12;;;;;;;5.97;2.72;;;;;;;19.93;67.05;100114.53;5041697;28;20040;-66
2022/06/17 01:32:45;;;;;;;4.80;2.53;;;;;;;19.97;67.58;100114.94;5041775;28;20034;-66
2022/06/17 01:35:11;;;;;;;8.23;3.30;;;;;;;20.02;67.29;100113.25;5042158;28;20029;-66
2022/06/17 01:37:37;;;;;;;6.20;3.05;;;;;;;19.96;67.83;100107.91;5042376;28;20038;-66
2022/06/17 01:40:04;;;;;;;4.60;2.85;;;;;;;20.01;67.84;100110.78;5042406;28;20037;-66
2022/06/17 01:42:31;;;;;;;5.15;3.20;;;;;;;19.98;68.33;100111.19;5040545;28;20038;-66
2022/06/17 01:44:56;;;;;;;6.93;3.50;;;;;;;19.87;68.52;100101.94;5041071;28;20103;-65
2022/06/17 01:47:25;;;;;;;5.82;3.15;;;;;;;19.88;68.55;100105.47;5042639;28;20258;-66
2022/06/17 01:49:55;;;;;;;4.30;3.35;;;;;;;19.85;68.48;100097.81;5042200;28;20331;-66
2022/06/17 01:52:38;;;;;;;9.85;3.15;;;;;;;19.88;67.76;100100.09;5040354;28;20361;-66
2022/06/17 01:55:11;;;;;;;11.82;3.00;;;;;;;19.85;67.96;100108.56;5041542;28;20053;-65
2022/06/17 01:58:01;;;;;;;6.88;3.22;;;;;;;19.76;68.77;100107.97;5041570;28;20037;-65
2022/06/17 02:00:29;;;;;;;9.40;4.18;;;;;;;19.75;69.46;100104.44;5040697;28;20350;-65
2022/06/17 02:03:02;;;;;;;7.03;3.97;;;;;;;19.76;69.62;100094.53;5041285;28;20108;-66
2022/06/17 02:05:33;;;;;;;8.75;4.22;;;;;;;19.71;70.15;100105.91;5040921;28;20057;-65
2022/06/17 02:08:01;;;;;;;6.70;3.72;;;;;;;19.73;70.25;100106.53;5040774;28;20100;-66
2022/06/17 02:10:33;;;;;;;5.85;4.10;;;;;;;19.79;70.14;100104.88;5041826;28;20263;-66
2022/06/17 02:13:01;;;;;;;7.22;3.47;;;;;;;19.84;69.76;100101.56;5041474;28;20056;-65
2022/06/17 02:15:27;;;;;;;6.88;4.03;;;;;;;19.88;69.48;100103.59;5041785;28;20199;-66
2022/06/17 02:17:54;;;;;;;10.93;3.70;;;;;;;19.88;68.65;100106.28;5023976;28;20049;-66
2022/06/17 02:20:23;;;;;;;6.10;3.80;;;;;;;19.87;68.37;100101.94;5040483;28;20331;-66
2022/06/17 02:22:50;;;;;;;5.57;3.65;;;;;;;19.84;68.58;100107.75;5040840;28;20068;-65
2022/06/17 02:25:20;;;;;;;5.07;3.67;;;;;;;19.60;69.86;100103.88;5041275;28;20037;-65
2022/06/17 02:27:50;;;;;;;9.82;3.85;;;;;;;19.61;70.59;100107.41;5041040;28;20034;-66
2022/06/17 02:30:17;;;;;;;7.40;3.72;;;;;;;19.57;70.87;100106.16;5026150;28;20044;-66
2022/06/17 02:32:44;;;;;;;10.00;4.50;;;;;;;19.69;70.32;100115.22;5042764;28;20041;-66
2022/06/17 02:35:27;;;;;;;10.18;4.05;;;;;;;19.67;70.48;100106.53;5045480;28;20317;-65
2022/06/17 02:37:54;;;;;;;9.07;4.13;;;;;;;19.46;70.13;100111.13;5045364;28;20247;-66
2022/06/17 02:40:40;;;;;;;6.20;4.07;;;;;;;19.19;70.27;100111.41;5046262;28;20327;-65
2022/06/17 02:43:11;;;;;;;7.88;3.90;;;;;;;18.89;69.68;100111.00;5045397;28;20108;-66
2022/06/17 02:45:42;;;;;;;14.50;3.70;;;;;;;18.74;69.99;100117.41;5045727;28;20162;-66
2022/06/17 02:48:19;;;;;;;9.35;4.25;;;;;;;18.84;69.94;100114.31;5044221;28;20037;-66
2022/06/17 02:50:44;;;;;;;3.65;3.15;;;;;;;18.97;69.49;100114.31;5043942;28;20038;-65
2022/06/17 02:53:10;;;;;;;9.77;3.70;;;;;;;19.18;68.51;100115.94;5045865;28;20052;-66
2022/06/17 02:55:40;;;;;;;7.38;3.53;;;;;;;19.30;68.09;100121.50;5045436;28;20279;-66
2022/06/17 02:58:17;;;;;;;11.70;3.60;;;;;;;19.38;67.89;100110.53;5045684;28;20037;-66
2022/06/17 03:00:43;;;;;;;7.47;3.58;;;;;;;19.40;67.57;100114.66;5043905;28;20090;-66
2022/06/17 03:03:13;;;;;;;4.65;3.35;;;;;;;19.28;67.37;100112.81;5044285;28;20033;-65
2022/06/17 03:05:42;;;;;;;8.00;3.65;;;;;;;19.26;68.37;100115.72;5044466;28;20025;-66
2022/06/17 03:08:36;;;;;;;5.53;3.50;;;;;;;19.38;67.77;100116.72;5045646;28;20039;-65
2022/06/17 03:11:02;;;;;;;6.10;3.90;;;;;;;19.36;67.59;100109.91;5043911;28;20121;-66
2022/06/17 03:13:47;;;;;;;8.00;3.55;;;;;;;19.12;67.69;100109.53;5043258;28;20335;-65
2022/06/17 03:16:13;;;;;;;10.77;3.90;;;;;;;18.90;68.30;100112.66;5043139;28;20033;-65
2022/06/17 03:18:40;;;;;;;8.60;3.25;;;;;;;18.84;69.71;100119.69;5044848;28;20082;-65
2022/06/17 03:21:06;;;;;;;6.55;3.55;;;;;;;18.86;70.26;100125.66;5044988;28;20092;-66
2022/06/17 03:29:23;;;;;;;7.78;3.42;;;;;;;19.29;67.61;100127.91;5047001;28;20057;-65
2022/06/17 03:32:06;;;;;;;8.60;3.55;;;;;;;19.27;67.99;100128.09;5063922;28;20099;-65
2022/06/17 03:34:34;;;;;;;5.80;3.35;;;;;;;19.44;68.02;100132.00;5063994;28;20033;-66
2022/06/17 03:37:08;;;;;;;6.82;3.30;;;;;;;19.33;68.12;100131.81;5064026;28;20049;-65
2022/06/17 03:39:44;;;;;;;11.55;3.45;;;;;;;19.57;68.13;100138.41;5064041;28;20024;-66
2022/06/17 03:42:43;;;;;;;14.82;3.72;;;;;;;19.63;68.18;100140.25;5058343;28;20045;-65
2022/06/17 03:45:16;;;;;;;11.00;4.10;;;;;;;19.66;68.05;100139.81;5054899;28;20315;-66
2022/06/17 03:48:08;;;;;;;10.13;4.20;;;;;;;19.59;67.21;100149.75;5064019;28;20198;-66
2022/06/17 03:50:36;;;;;;;12.63;4.20;;;;;;;19.67;66.71;100144.16;5060218;28;20118;-66
2022/06/17 03:53:18;;;;;;;6.80;3.28;;;;;;;19.88;65.81;100146.59;5063798;28;20037;-65
2022/06/17 03:55:43;;;;;;;6.35;3.40;;;;;;;20.03;64.54;100154.38;5063743;28;20067;-66
2022/06/17 03:58:14;;;;;;;10.80;4.20;;;;;;;20.06;64.74;100152.09;5063437;28;20029;-66
2022/06/17 04:00:54;;;;;;;8.85;3.97;;;;;;;20.13;66.19;100146.69;5063580;28;20306;-65
2022/06/17 04:03:25;;;;;;;13.10;5.15;;;;;;;20.17;65.38;100137.16;5063333;28;20043;-66
2022/06/17 04:05:56;;;;;;;17.90;5.40;;;;;;;20.24;64.30;100143.31;5057545;28;20087;-66
2022/06/17 04:08:22;;;;;;;11.00;5.00;;;;;;;20.33;64.66;100135.81;5056964;28;20037;-65
2022/06/17 04:10:48;;;;;;;7.55;3.88;;;;;;;20.46;62.49;100141.16;5040023;28;20017;-65
2022/06/17 04:13:17;;;;;;;7.93;3.70;;;;;;;20.65;60.84;100136.69;5063471;28;20033;-66
2022/06/17 04:16:05;;;;;;;10.20;3.22;;;;;;;20.86;58.02;100140.91;5063194;28;20360;-66
2022/06/17 04:18:34;;;;;;;11.07;3.55;;;;;;;21.19;57.06;100129.84;5063298;28;20267;-66
2022/06/17 04:21:02;;;;;;;9.07;3.50;;;;;;;21.39;55.84;100138.56;5063486;28;20104;-65
2022/06/17 04:23:33;;;;;;;10.77;3.85;;;;;;;21.60;55.31;100140.00;5060380;28;20033;-66
2022/06/17 04:26:09;;;;;;;8.70;3.72;;;;;;;21.75;55.59;100145.84;5059691;28;20028;-66
2022/06/17 04:28:42;;;;;;;11.52;3.92;;;;;;;21.77;55.90;100137.53;5057980;28;20082;-66
2022/06/17 04:31:15;;;;;;;8.23;4.43;;;;;;;21.85;56.60;100130.00;5025543;28;20017;-66
2022/06/17 04:33:53;;;;;;;8.88;3.92;;;;;;;21.90;57.46;100127.44;5059036;28;20079;-66
2022/06/17 04:36:52;;;;;;;8.68;4.00;;;;;;;21.77;56.37;100137.53;5058864;28;20384;-66
2022/06/17 04:39:47;;;;;;;10.32;3.47;;;;;;;21.11;56.78;100144.41;5056833;28;20025;-66
2022/06/17 04:42:20;;;;;;;8.57;3.75;;;;;;;21.00;57.11;100137.06;5056751;28;20079;-65
2022/06/17 04:44:46;;;;;;;13.50;3.95;;;;;;;21.28;55.54;100139.31;5039974;28;20058;-66
2022/06/17 04:47:16;;;;;;;11.27;3.80;;;;;;;21.43;54.65;100139.78;5059222;28;20037;-66
2022/06/17 04:49:46;;;;;;;10.00;3.78;;;;;;;21.67;54.45;100141.59;5061277;28;20053;-66
2022/06/17 04:52:38;;;;;;;11.10;3.47;;;;;;;21.67;54.20;100129.97;5061612;28;20048;-66
2022/06/17 04:55:10;;;;;;;10.63;4.07;;;;;;;21.72;55.26;100124.72;5048059;28;20257;-66
2022/06/17 04:57:38;;;;;;;9.85;3.50;;;;;;;21.83;55.75;100133.94;5057640;28;20223;-66
2022/06/17 05:00:04;;;;;;;9.70;3.45;;;;;;;21.95;55.05;100141.06;5059127;28;20023;-66
2022/06/17 05:02:32;;;;;;;20.33;3.83;;;;;;;22.05;53.33;100134.34;5057639;28;20403;-65
2022/06/17 05:05:03;;;;;;;9.55;3.22;;;;;;;22.46;52.83;100126.28;5060499;28;20087;-66
2022/06/17 05:07:39;;;;;;;6.63;3.10;;;;;;;22.62;51.05;100138.31;5061336;28;20418;-66
2022/06/17 05:10:12;;;;;;;8.38;3.60;;;;;;;22.38;52.65;100139.28;5060847;28;20315;-66
2022/06/17 05:12:40;;;;;;;7.25;3.22;;;;;;;22.36;51.41;100126.03;5062020;28;20059;-66
2022/06/17 05:15:15;;;;;;;7.93;3.20;;;;;;;22.15;52.73;100110.34;5058654;28;20036;-66
2022/06/17 05:17:41;;;;;;;10.82;3.58;;;;;;;22.36;53.21;100136.00;5058984;28;20041;-66
2022/06/17 05:20:10;;;;;;;7.47;3.88;;;;;;;22.91;51.31;100142.06;5058291;28;20078;-66
2022/06/17 05:22:41;;;;;;;12.20;4.65;;;;;;;23.16;50.51;100137.25;5058731;28;20323;-66
2022/06/17 05:25:15;;;;;;;13.65;4.63;;;;;;;23.40;50.52;100129.13;5057599;28;20048;-66
2022/06/17 05:27:41;;;;;;;6.53;3.63;;;;;;;23.64;49.37;100138.06;5056358;28;20072;-66
2022/06/17 05:30:07;;;;;;;10.60;3.90;;;;;;;23.74;49.16;100144.50;5056549;28;20329;-66
2022/06/17 05:32:33;;;;;;;7.55;3.55;;;;;;;24.04;48.77;100130.81;5057562;28;20099;-66
2022/06/17 05:34:58;;;;;;;11.35;4.03;;;;;;;24.31;48.16;100136.50;5056606;28;20032;-66
2022/06/17 05:37:24;;;;;;;11.15;3.97;;;;;;;24.46;46.95;100133.25;5057578;28;20048;-66
2022/06/17 05:39:50;;;;;;;10.15;3.55;;;;;;;24.74;46.98;100126.97;5057263;28;20025;-66
2022/06/17 05:42:15;;;;;;;5.72;4.00;;;;;;;24.99;46.44;100134.75;5056702;28;20037;-66
2022/06/17 05:44:41;;;;;;;8.98;3.30;;;;;;;25.13;46.55;100128.75;5057425;28;20041;-66
2022/06/17 05:47:07;;;;;;;9.35;3.58;;;;;;;25.37;45.35;100128.53;5056004;28;20033;-66
2022/06/17 05:49:33;;;;;;;10.07;3.88;;;;;;;25.66;44.92;100124.63;5056847;28;20734;-66
2022/06/17 05:51:59;;;;;;;10.13;3.65;;;;;;;25.93;43.79;100121.16;5057105;28;20044;-66
2022/06/17 05:54:25;;;;;;;12.43;3.58;;;;;;;26.00;43.39;100125.31;5056428;28;20033;-66
2022/06/17 05:56:51;;;;;;;6.95;3.30;;;;;;;26.21;43.63;100120.94;5057827;28;20031;-66
2022/06/17 05:59:17;;;;;;;8.38;3.88;;;;;;;26.33;42.88;100115.41;5056723;28;20053;-66
2022/06/17 06:01:44;;;;;;;8.80;3.97;;;;;;;26.64;42.42;100108.34;5056264;28;20055;-66
2022/06/17 06:04:09;;;;;;;9.00;3.65;;;;;;;26.86;42.45;100109.06;5057108;28;20066;-66
2022/06/17 06:06:35;;;;;;;10.57;3.92;;;;;;;27.01;41.13;100108.38;5055326;28;20314;-66
2022/06/17 06:09:01;;;;;;;9.00;4.03;;;;;;;26.96;41.26;100108.31;5060472;28;20222;-66
2022/06/17 06:11:26;;;;;;;4.95;3.55;;;;;;;27.02;41.01;100107.31;5060135;28;20101;-66
2022/06/17 06:13:52;;;;;;;9.15;4.10;;;;;;;27.01;41.48;100105.69;5060316;28;20029;-66
2022/06/17 06:16:17;;;;;;;10.80;4.50;;;;;;;26.68;42.72;100101.31;5061585;28;20273;-66
2022/06/17 06:18:47;;;;;;;9.82;3.80;;;;;;;27.05;41.70;100098.66;5060182;28;20032;-66
2022/06/17 06:21:14;;;;;;;7.10;3.70;;;;;;;27.42;41.05;100100.50;5059554;28;20029;-66
2022/06/17 06:23:41;;;;;;;10.93;3.90;;;;;;;27.24;40.25;100099.88;5060989;28;20082;-66
2022/06/17 06:26:09;;;;;;;9.75;3.50;;;;;;;27.40;39.94;100097.25;5059601;28;20319;-66
2022/06/17 06:28:35;;;;;;;6.63;3.38;;;;;;;27.45;39.60;100098.09;5059546;28;20056;-66
2022/06/17 06:31:23;;;;;;;9.10;4.45;;;;;;;26.99;40.51;100056.19;5060964;28;20049;-66
2022/06/17 06:33:49;;;;;;;12.02;4.40;;;;;;;27.07;41.36;100090.25;5060836;28;20326;-66
2022/06/17 06:36:14;;;;;;;16.88;4.22;;;;;;;27.41;41.54;100094.25;5060061;28;20028;-67
2022/06/17 06:38:40;;;;;;;11.90;4.22;;;;;;;27.35;41.77;100092.59;5059761;28;20075;-66
2022/06/17 06:41:05;;;;;;;8.40;4.70;;;;;;;27.31;41.37;100097.75;5233622;22;20164;-72
2022/06/17 06:43:31;;;;;;;11.07;4.20;;;;;;;27.48;41.98;100083.13;5053124;28;20248;-71
2022/06/17 06:45:57;;;;;;;10.63;4.63;;;;;;;27.62;42.13;100082.41;5058421;28;20048;-71
2022/06/17 06:48:25;;;;;;;9.07;4.72;;;;;;;27.71;41.49;100080.00;5064355;28;20032;-72
2022/06/17 06:50:51;;;;;;;9.68;4.35;;;;;;;27.71;40.97;100062.84;5064342;28;20067;-72
2022/06/17 06:53:17;;;;;;;6.95;4.50;;;;;;;28.05;40.39;100074.09;5064449;28;20033;-71
2022/06/17 06:55:42;;;;;;;7.50;4.60;;;;;;;28.49;40.46;100060.88;5063802;28;20048;-72
2022/06/17 06:58:14;;;;;;;9.95;4.72;;;;;;;28.53;40.11;100054.59;5046170;28;20021;-72
2022/06/17 07:00:45;;;;;;;14.95;4.72;;;;;;;28.81;39.93;100055.13;5064163;28;20078;-71
2022/06/17 07:03:12;;;;;;;14.38;4.78;;;;;;;29.01;39.41;100043.41;5064031;28;20036;-72
2022/06/17 07:05:42;;;;;;;12.50;4.88;;;;;;;29.11;39.51;100040.66;5064074;28;20051;-72
2022/06/17 07:08:11;;;;;;;17.20;5.20;;;;;;;29.13;38.88;100028.41;5064165;28;20060;-72
2022/06/17 07:10:37;;;;;;;9.77;4.82;;;;;;;29.27;39.50;100038.72;5063405;28;20033;-72
2022/06/17 07:13:05;;;;;;;14.25;4.65;;;;;;;29.53;38.82;100030.19;5063940;28;20037;-72
2022/06/17 07:15:31;;;;;;;17.80;5.20;;;;;;;29.70;38.46;100023.56;5063748;28;20033;-72
2022/06/17 07:18:04;;;;;;;14.20;5.38;;;;;;;29.40;38.80;100025.31;5063691;28;20033;-72
2022/06/17 07:20:37;;;;;;;9.32;5.35;;;;;;;28.71;39.99;100027.91;5063413;28;20045;-72
2022/06/17 07:23:07;;;;;;;15.13;6.22;;;;;;;29.00;40.95;100023.50;5063636;28;20025;-72
2022/06/17 07:25:34;;;;;;;8.38;4.85;;;;;;;28.96;41.03;100016.97;5063685;28;20044;-73
2022/06/17 07:28:00;;;;;;;14.70;5.15;;;;;;;29.03;40.47;100013.97;5045617;28;20039;-72
2022/06/17 07:30:27;;;;;;;22.60;6.57;;;;;;;29.28;39.59;100007.63;5063651;28;20260;-72
2022/06/17 07:32:53;;;;;;;7.82;4.45;;;;;;;29.09;39.43;100010.13;5061227;28;20322;-72
2022/06/17 07:35:19;;;;;;;12.27;4.60;;;;;;;29.37;39.85;100008.69;5053434;28;20032;-72
2022/06/17 07:40:30;;;;;;;10.02;4.60;;;;;;;29.91;38.19;100000.50;5053587;28;20067;-73
2022/06/17 07:42:56;;;;;;;15.05;5.03;;;;;;;29.86;37.34;100001.34;5054173;28;20373;-71
2022/06/17 07:45:24;;;;;;;11.75;4.88;;;;;;;29.71;38.52;99998.72;5057393;28;20276;-72
2022/06/17 07:47:50;;;;;;;9.65;4.85;;;;;;;29.60;38.58;100001.78;5055590;28;20452;-72
2022/06/17 07:50:19;;;;;;;8.23;4.38;;;;;;;29.81;37.83;99995.91;5055337;28;20039;-72
2022/06/17 07:52:46;;;;;;;9.52;4.47;;;;;;;30.24;37.37;99998.13;5058091;28;20110;-72
2022/06/17 07:55:11;;;;;;;5.90;3.80;;;;;;;30.46;35.94;99998.47;5055474;28;20214;-72
2022/06/17 07:57:37;;;;;;;10.63;3.97;;;;;;;30.47;35.78;99989.19;5038883;28;20027;-72
2022/06/17 08:00:10;;;;;;;11.35;4.57;;;;;;;30.49;36.45;99995.97;5055079;28;20037;-72
2022/06/17 08:02:35;;;;;;;11.40;4.47;;;;;;;30.49;35.54;99982.31;5055721;28;20033;-72
2022/06/17 08:05:01;;;;;;;5.43;4.13;;;;;;;29.99;36.76;99982.69;5057215;28;20574;-72
2022/06/17 08:07:28;;;;;;;9.63;5.00;;;;;;;29.75;38.08;99991.59;5054392;28;20046;-72
2022/06/17 08:09:53;;;;;;;8.80;4.63;;;;;;;30.14;37.99;99991.63;5056303;28;20079;-72
2022/06/17 08:12:19;;;;;;;10.43;4.22;;;;;;;30.05;38.21;99987.84;5038294;28;20033;-72
2022/06/17 08:14:46;;;;;;;8.00;4.63;;;;;;;30.11;36.96;99981.25;5054225;28;20311;-72
2022/06/17 08:17:15;;;;;;;8.07;4.82;;;;;;;30.15;35.57;99993.25;5057922;28;20247;-72
2022/06/17 08:19:43;;;;;;;8.43;3.75;;;;;;;30.38;35.22;99985.44;5053252;28;20041;-72
2022/06/17 08:22:09;;;;;;;15.63;4.85;;;;;;;30.47;35.75;99975.50;5054103;28;20145;-72
2022/06/17 08:24:35;;;;;;;11.55;4.30;;;;;;;30.32;36.02;99981.13;5058143;28;20040;-72
2022/06/17 08:27:01;;;;;;;8.05;4.25;;;;;;;30.56;35.40;99967.50;5053641;28;20028;-72
2022/06/17 08:29:28;;;;;;;5.25;3.65;;;;;;;30.79;33.32;99974.94;5052914;28;20241;-72
2022/06/17 08:31:53;;;;;;;6.50;3.58;;;;;;;30.69;34.05;99966.84;5056120;28;20062;-72
2022/06/17 08:34:19;;;;;;;7.97;3.88;;;;;;;30.63;35.53;99968.81;5038079;28;20033;-72
2022/06/17 08:36:46;;;;;;;5.72;3.50;;;;;;;30.86;34.41;99972.69;5054838;28;20029;-72
2022/06/17 08:39:13;;;;;;;9.88;3.90;;;;;;;30.96;34.59;99967.09;5058138;28;20178;-72
2022/06/17 08:41:56;;;;;;;6.65;3.83;;;;;;;30.38;35.11;99964.41;5054448;28;20037;-72
2022/06/17 08:44:39;;;;;;;3.97;3.50;;;;;;;30.38;34.36;99969.03;5052930;28;20313;-72
2022/06/17 08:47:30;;;;;;;5.03;3.53;;;;;;;30.76;34.48;99962.66;5044864;28;20024;-72
2022/06/17 08:50:14;;;;;;;6.18;3.63;;;;;;;31.25;33.51;99967.06;5057410;28;20032;-72
2022/06/17 08:52:46;;;;;;;;;;;;;;;31.35;33.34;99966.13;5041034;28;20044;-72
2022/06/17 08:55:26;;;;;;;6.60;3.72;;;;;;;31.44;32.16;99958.88;5055777;28;20225;-72
2022/06/17 08:58:23;;;;;;;7.40;3.78;;;;;;;31.22;34.02;99958.63;5052176;28;20043;-72
2022/06/17 09:01:03;;;;;;;8.98;4.13;;;;;;;31.24;34.23;99959.16;5053170;28;20036;-72
2022/06/17 09:04:03;;;;;;;6.95;3.60;;;;;;;30.80;34.49;99962.91;5053214;28;20318;-72
2022/06/17 09:07:13;;;;;;;7.55;3.70;;;;;;;30.70;33.84;99961.09;4974781;28;20054;-72
2022/06/17 09:10:08;;;;;;;4.55;3.45;;;;;;;31.25;33.28;99963.53;4965975;28;20386;-72
2022/06/17 09:13:06;;;;;;;7.20;3.35;;;;;;;31.45;32.47;99955.03;4974432;28;20082;-72
2022/06/17 09:15:44;;;;;;;7.43;3.45;;;;;;;31.54;32.49;99955.19;5032160;28;20058;-72
2022/06/17 09:18:29;;;;;;;7.03;3.50;;;;;;;31.78;30.33;99955.94;5053495;28;20169;-72
2022/06/17 09:21:18;;;;;;;6.88;3.40;;;;;;;31.62;30.25;99951.78;5051455;28;20131;-72
2022/06/17 09:23:44;;;;;;;9.48;3.60;;;;;;;31.32;32.18;99953.03;5006598;28;20040;-72
2022/06/17 09:26:28;;;;;;;6.82;3.33;;;;;;;31.27;31.87;99947.63;5054952;28;20025;-72
2022/06/17 09:29:17;;;;;;;5.93;3.35;;;;;;;31.17;32.75;99945.00;5052593;28;20485;-72
2022/06/17 09:31:51;;;;;;;4.43;3.40;;;;;;;31.16;32.34;99943.38;5056989;28;20385;-72
2022/06/17 09:34:36;;;;;;;5.60;3.28;;;;;;;30.92;33.58;99937.88;5034716;28;20215;-72
2022/06/17 09:37:12;;;;;;;6.88;4.18;;;;;;;30.36;34.51;99939.28;5055232;28;20035;-72
2022/06/17 09:39:47;;;;;;;7.85;3.80;;;;;;;29.80;34.24;99936.97;5054472;28;21386;-72
2022/06/17 09:42:18;;;;;;;7.95;3.53;;;;;;;29.83;34.89;99925.47;5051902;28;20017;-72
2022/06/17 09:44:53;;;;;;;7.43;4.03;;;;;;;29.93;34.80;99929.22;5053284;28;20108;-72
2022/06/17 09:47:29;;;;;;;10.25;4.10;;;;;;;29.86;36.34;99921.38;5055662;28;20032;-72
2022/06/17 09:50:09;;;;;;;10.52;3.97;;;;;;;29.53;35.37;99922.97;5055162;28;20036;-72
2022/06/17 09:52:42;;;;;;;8.85;4.10;;;;;;;29.59;35.91;99910.91;5038718;28;20337;-72
2022/06/17 09:55:16;;;;;;;10.20;4.07;;;;;;;29.56;37.54;99914.22;5052262;28;20040;-72
2022/06/17 09:58:17;;;;;;;8.15;4.38;;;;;;;29.66;36.26;99907.88;5052193;28;20040;-72
2022/06/17 10:00:48;;;;;;;8.32;4.22;;;;;;;29.39;38.00;99909.09;5031299;28;20048;-72
2022/06/17 10:03:19;;;;;;;11.98;4.15;;;;;;;29.62;37.62;99899.44;5056160;28;20033;-72
2022/06/17 10:06:03;;;;;;;10.93;4.38;;;;;;;29.69;37.29;99896.38;5056364;28;20037;-72
2022/06/17 10:08:40;;;;;;;;;;;;;;;29.96;36.78;99893.97;5055384;28;20103;-72
2022/06/17 10:11:25;;;;;;;8.18;3.88;;;;;;;29.59;38.22;99899.19;5051828;28;19917;-71
2022/06/17 10:13:59;;;;;;;6.80;4.05;;;;;;;29.10;36.28;99892.59;5050867;28;20039;-72
2022/06/17 10:20:15;;;;;;;10.15;4.38;;;;;;;29.18;37.45;99897.50;5053355;28;20368;-72
2022/06/17 10:23:01;;;;;;;7.03;4.18;;;;;;;29.28;38.29;99884.91;5052628;28;20029;-72
2022/06/17 10:25:27;;;;;;;13.55;4.68;;;;;;;29.28;40.26;99891.16;5052077;28;20183;-72
2022/06/17 10:28:10;;;;;;;12.75;4.60;;;;;;;29.49;40.83;99879.06;5056077;28;20041;-72
2022/06/17 10:30:42;;;;;;;9.50;5.53;;;;;;;29.51;38.72;99876.88;5056260;28;20380;-72
2022/06/17 10:33:12;;;;;;;10.65;4.40;;;;;;;29.67;37.82;99874.84;5052138;28;20036;-72
2022/06/17 10:35:40;;;;;;;8.55;4.57;;;;;;;29.50;39.39;99882.59;5052504;28;20380;-72
2022/06/17 10:38:10;;;;;;;6.22;4.15;;;;;;;29.65;38.57;99881.69;5055131;28;20237;-72
2022/06/17 10:40:40;;;;;;;9.63;6.88;;;;;;;29.86;37.06;99881.22;5053587;28;20360;-72
2022/06/17 10:43:10;;;;;;;5.15;3.95;;;;;;;29.55;37.40;99875.19;5051383;28;20248;-72
2022/06/17 10:45:35;;;;;;;6.55;4.32;;;;;;;29.47;38.99;99869.53;5052771;28;20071;-72
2022/06/17 10:48:07;;;;;;;7.25;4.50;;;;;;;29.19;37.62;99874.59;5056112;28;20041;-72
2022/06/17 10:50:33;;;;;;;6.63;4.28;;;;;;;29.42;38.73;99870.34;5050389;28;20074;-72
2022/06/17 10:53:17;;;;;;;6.47;4.05;;;;;;;29.49;37.65;99862.69;5052999;28;20282;-72
2022/06/17 10:55:45;;;;;;;;;;;;;;;29.55;39.03;99866.19;5057105;28;20330;-72
2022/06/17 10:58:27;;;;;;;8.43;4.32;;;;;;;29.73;37.91;99851.88;5057682;28;19932;-72
2022/06/17 11:00:58;;;;;;;9.40;5.10;;;;;;;29.80;38.69;99855.09;5056236;28;20094;-72
2022/06/17 11:03:38;;;;;;;10.15;4.30;;;;;;;29.86;38.00;99859.41;5061715;28;20055;-72
2022/06/17 11:06:18;;;;;;;8.75;4.65;;;;;;;29.90;37.93;99858.81;5059651;28;20033;-72
2022/06/17 11:08:49;;;;;;;5.57;3.50;;;;;;;30.02;37.15;99856.56;5062382;28;20035;-72
2022/06/17 11:14:25;;;;;;;7.47;4.47;;;;;;;29.78;36.99;99854.56;5060829;28;20032;-72
2022/06/17 11:16:50;;;;;;;9.27;4.00;;;;;;;29.86;37.59;99843.00;5064288;28;20104;-72
2022/06/17 11:19:20;;;;;;;11.35;4.68;;;;;;;29.98;38.52;99848.09;5063978;28;20025;-72
2022/06/17 11:21:51;;;;;;;11.02;4.68;;;;;;;30.07;36.50;99838.22;5063884;28;20025;-72
2022/06/17 11:24:25;;;;;;;9.05;4.13;;;;;;;30.18;36.06;99838.94;5063959;28;20119;-72
2022/06/17 11:27:31;;;;;;;14.95;4.80;;;;;;;30.22;37.51;99836.44;5063435;28;20029;-72
2022/06/17 11:30:23;;;;;;;7.55;4.53;;;;;;;30.04;37.16;99818.84;5063729;28;20040;-72
2022/06/17 11:32:49;;;;;;;7.13;4.10;;;;;;;30.12;37.11;99823.69;5063877;28;20222;-72
2022/06/17 11:35:34;;;;;;;6.70;4.47;;;;;;;30.25;36.16;99816.75;5063485;28;20048;-72
2022/06/17 11:38:03;;;;;;;6.22;4.03;;;;;;;30.42;35.01;99806.97;5063745;28;20083;-72
2022/06/17 11:40:32;;;;;;;8.13;4.57;;;;;;;29.99;36.07;99811.50;5062737;28;20052;-72
2022/06/17 11:43:05;;;;;;;9.93;4.47;;;;;;;29.96;36.84;99809.34;5063601;28;20218;-72
2022/06/17 11:45:39;;;;;;;9.32;4.80;;;;;;;30.01;35.46;99808.47;5063351;28;20055;-72
2022/06/17 11:48:11;;;;;;;11.13;4.80;;;;;;;30.21;36.27;99816.53;5063628;28;20092;-72
2022/06/17 11:50:40;;;;;;;10.85;4.10;;;;;;;30.24;34.15;99809.66;5063240;28;20059;-72
2022/06/17 11:53:11;;;;;;;4.53;3.97;;;;;;;30.02;35.93;99810.13;5063411;28;20039;-71
2022/06/17 11:55:46;;;;;;;4.68;3.85;;;;;;;29.71;36.75;99807.66;5063395;28;20040;-71
2022/06/17 11:58:14;;;;;;;6.03;4.22;;;;;;;29.64;37.22;99800.91;5063288;28;20215;-71
2022/06/17 12:00:39;;;;;;;5.97;4.30;;;;;;;29.36;36.91;99803.28;5063139;28;20029;-71
2022/06/17 12:03:05;;;;;;;9.07;4.05;;;;;;;29.37;36.86;99801.38;5063237;28;20033;-71
2022/06/17 12:05:33;;;;;;;6.10;4.38;;;;;;;28.86;37.59;99797.06;5062044;28;20063;-71